Crystal Lake, IL (60012)

1:23 PM CST on March 04, 2015 (GMT -0600)
City Hall | Change Station
CLOSE
Current Station
Personal Weather Station
Location: Crystal Lake, IL
Elevation: 927 ft
Nearby Weather Stations

Elev 927 ft 42.25 °N, 88.32 °W | Updated 3 minutes ago

Clear
Clear
17.6 °F
Feels Like 3 °F
N
16.1
Wind Variable Wind from North
Gusts 23.9 mph

Today
High -- | Low -- °F
--% Chance of Precip.
Yesterday
High -- | Low -- °F
Precip. -- in
6:24 AM 5:46 PM
Waxing Gibbous, 99% visible
Pressure 30.17 in
Visibility 10.0 miles
Clouds Clear
Windchill 3 °F
Dew Point 1 °F
Humidity 47%
Rainfall 0.00 in
Snow Depth Not available.
UV 5 out of 12
Pollen .70 out of 12
Air Quality Not available.
Flu Activity Not available.
METAR KUGN 041855Z 30011G18KT 10SM CLR M07/M18 A3012 RMK AO2 SLP216 T10721178

More Conditions Fewer Conditions

Pressure 30.17 in
Visibility 10.0 miles
Clouds Clear
Windchill 3 °F
Dew Point 1 °F
Humidity 47%
Rainfall 0.00 in
Snow Depth Not available.
UV 5 out of 12
Pollen .70 out of 12
Air Quality Not available.
Flu Activity Not available.
METAR KUGN 041855Z 30011G18KT 10SM CLR M07/M18 A3012 RMK AO2 SLP216 T10721178

More Conditions Fewer Conditions

10-Day Weather Forecast

Almanac

Astronomy

Mar. 04, 2015 Rise Set
Actual Time
Civil Twilight
Nautical Twilight
Astronomical Twilight
Moon
Length of Visible Light
Length of Day
Tomorrow will be .
, % of the Moon is Illuminated

Today's Extremes

State Highs State Lows

Community

WunderPhotos

Upload Photos

1,802,552 photos uploaded!

WunderBlogs® & News

Nearby

Air Quality

  Air Quality AQ Index Pollutant
Not available.

Snow Depth

Station Depth Elevation

Earthquake Activity

City Distance Mag. Time & Date
Minimum magnitude displayed is 2.5.

Coastal Water Temperatures

Place Temperature

Nearby Weather Stations